Time;durP1;ratioP1;P1;durP2;ratioP2;P2;SDS_P1;SDS_P2;PMS_P1;PMS_P2;Temp;Humidity;BMP_temperature;BMP_pressure;BME280_temperature;BME280_humidity;BME280_pressure;Samples;Min_cycle;Max_cycle;Signal;HPM_P1;HPM_P2
2022/09/18 00:01:14;;;;;;;10.15;6.12;;;;;;;14.76;77.85;99058.80;1756170;80;21723;-59
2022/09/18 00:03:42;;;;;;;8.50;6.50;;;;;;;14.74;77.88;99051.52;1755201;80;21074;-62
2022/09/18 00:06:14;;;;;;;7.42;5.58;;;;;;;14.75;77.73;99051.86;1766427;80;21073;-63
2022/09/18 00:08:42;;;;;;;8.80;5.65;;;;;;;14.79;77.61;99058.45;1751866;80;21050;-61
2022/09/18 00:11:12;;;;;;;8.00;5.85;;;;;;;14.80;77.44;99055.28;1758964;79;21061;-62
2022/09/18 00:13:39;;;;;;;7.53;6.03;;;;;;;14.82;77.58;99059.89;1752240;80;21085;-62
2022/09/18 00:16:07;;;;;;;7.70;5.67;;;;;;;14.81;77.52;99063.53;1752240;80;21518;-61
2022/09/18 00:18:35;;;;;;;6.72;5.15;;;;;;;14.78;77.59;99064.73;1757803;80;21047;-61
2022/09/18 00:21:08;;;;;;;7.92;6.00;;;;;;;14.73;77.50;99061.00;1759177;80;21018;-62
2022/09/18 00:23:34;;;;;;;7.60;5.20;;;;;;;14.73;77.49;99062.33;1749556;80;21105;-61
2022/09/18 00:26:02;;;;;;;8.43;6.03;;;;;;;14.76;77.56;99060.61;1763386;80;21199;-61
2022/09/18 00:28:28;;;;;;;11.68;6.30;;;;;;;14.74;77.57;99051.52;1753163;80;21109;-61
2022/09/18 00:30:55;;;;;;;7.25;5.53;;;;;;;14.72;77.86;99039.48;1733654;82;21510;-61
2022/09/18 00:33:21;;;;;;;10.45;6.17;;;;;;;14.70;77.86;99039.67;1768286;80;21451;-61
2022/09/18 00:35:48;;;;;;;8.05;5.25;;;;;;;14.69;77.82;99039.33;1758591;80;21000;-60
2022/09/18 00:38:14;;;;;;;7.62;5.33;;;;;;;14.72;77.81;99032.87;1761473;80;21146;-61
2022/09/18 00:40:41;;;;;;;8.05;5.65;;;;;;;14.75;77.79;99025.37;1762197;80;21541;-61
2022/09/18 00:43:23;;;;;;;7.90;5.55;;;;;;;14.77;77.82;99017.25;1749747;80;21648;-62
2022/09/18 00:46:03;;;;;;;7.90;5.20;;;;;;;14.77;77.98;99012.77;1754280;80;21098;-61
2022/09/18 00:48:57;;;;;;;6.80;5.12;;;;;;;14.75;77.93;99007.36;1766187;80;21055;-61
2022/09/18 00:51:24;;;;;;;7.87;5.58;;;;;;;14.73;77.99;99002.75;1758423;80;21132;-61
2022/09/18 00:53:59;;;;;;;7.85;4.92;;;;;;;14.77;78.07;99001.36;1752413;80;21086;-61
2022/09/18 00:56:25;;;;;;;7.67;5.40;;;;;;;14.77;78.21;98990.27;1758942;80;21102;-61
2022/09/18 00:58:52;;;;;;;10.32;5.47;;;;;;;14.76;78.22;98979.85;1759830;80;21075;-61
2022/09/18 01:02:04;;;;;;;7.35;5.33;;;;;;;14.77;78.43;98971.73;1790474;79;23404;-61
2022/09/18 01:04:31;;;;;;;7.47;4.60;;;;;;;14.83;77.87;98967.03;1770754;78;21501;-62
2022/09/18 01:07:32;;;;;;;6.90;4.83;;;;;;;14.86;77.85;98964.50;1766325;78;21137;-61
2022/09/18 01:10:04;;;;;;;7.40;4.95;;;;;;;14.86;78.03;98964.50;1774088;79;21091;-62
2022/09/18 01:12:55;;;;;;;6.65;4.50;;;;;;;14.80;78.04;98965.26;1760013;79;21086;-61
2022/09/18 01:15:51;;;;;;;8.30;5.05;;;;;;;14.75;78.14;98961.02;1773876;79;21124;-62
2022/09/18 01:18:49;;;;;;;7.22;4.67;;;;;;;14.78;78.09;98954.03;1776882;79;21070;-61
2022/09/18 01:21:18;;;;;;;7.08;4.28;;;;;;;14.78;78.18;98946.09;1780999;78;21164;-61
2022/09/18 01:24:10;;;;;;;7.37;4.20;;;;;;;14.73;78.28;98941.34;1771247;79;21034;-61
2022/09/18 01:26:57;;;;;;;6.78;4.00;;;;;;;14.71;78.19;98927.95;1775004;79;21045;-61
2022/09/18 01:29:49;;;;;;;6.83;4.03;;;;;;;14.67;78.08;98920.38;1777581;79;21531;-61
2022/09/18 01:32:53;;;;;;;7.35;4.25;;;;;;;14.64;78.11;98918.61;1733287;81;21597;-61
2022/09/18 01:35:30;;;;;;;6.58;4.20;;;;;;;14.56;78.48;98906.28;1713176;81;22079;-61
2022/09/18 01:38:05;;;;;;;5.58;3.83;;;;;;;14.55;78.58;98902.50;1719330;81;21112;-61
2022/09/18 01:40:39;;;;;;;6.90;3.87;;;;;;;14.56;78.57;98902.31;1720137;81;21046;-61
2022/09/18 01:43:08;;;;;;;5.42;3.62;;;;;;;14.59;78.61;98895.36;1718801;81;21055;-61
2022/09/18 01:45:39;;;;;;;5.90;4.03;;;;;;;14.57;78.70;98893.86;1719302;81;21023;-61
2022/09/18 01:48:07;;;;;;;6.65;4.17;;;;;;;14.54;78.73;98889.78;1711719;81;21136;-61
2022/09/18 01:50:40;;;;;;;5.70;3.50;;;;;;;14.50;78.75;98884.00;1717557;81;21555;-61
2022/09/18 01:53:20;;;;;;;7.92;4.37;;;;;;;14.52;78.81;98886.47;1728257;81;21027;-61
2022/09/18 01:55:53;;;;;;;7.03;4.40;;;;;;;14.53;78.51;98878.05;1691679;82;21058;-61
2022/09/18 01:58:21;;;;;;;5.90;4.15;;;;;;;14.50;78.94;98875.25;1709594;81;21081;-61
2022/09/18 02:00:54;;;;;;;5.92;3.77;;;;;;;14.49;79.00;98872.28;1699908;83;21241;-63
2022/09/18 02:03:35;;;;;;;5.17;3.27;;;;;;;14.51;78.93;98871.61;1686817;83;21458;-63
2022/09/18 02:06:06;;;;;;;6.10;3.90;;;;;;;14.50;78.79;98876.06;1715490;82;21110;-63
2022/09/18 02:08:50;;;;;;;5.30;3.25;;;;;;;14.52;78.85;98875.07;1710770;82;21098;-62
2022/09/18 02:11:17;;;;;;;6.15;3.75;;;;;;;14.53;78.93;98865.63;1705465;83;21121;-62
2022/09/18 02:14:04;;;;;;;6.97;3.62;;;;;;;14.51;78.92;98859.70;1694229;83;21097;-62
2022/09/18 02:16:43;;;;;;;5.78;3.20;;;;;;;14.47;78.83;98865.03;1682033;81;21050;-62
2022/09/18 02:19:15;;;;;;;6.62;3.70;;;;;;;14.51;78.97;98865.00;1753270;81;21039;-62
2022/09/18 02:21:42;;;;;;;7.05;3.75;;;;;;;14.55;78.87;98864.93;1758658;80;21055;-62
2022/09/18 02:24:10;;;;;;;7.42;3.85;;;;;;;14.58;78.90;98858.46;1752160;81;22280;-62
2022/09/18 02:26:38;;;;;;;6.20;4.10;;;;;;;14.57;78.98;98847.03;1755119;81;21193;-63
2022/09/18 02:29:05;;;;;;;5.28;3.30;;;;;;;14.57;79.06;98840.92;1756704;81;20987;-63
2022/09/18 02:31:32;;;;;;;5.22;3.10;;;;;;;14.60;78.82;98844.56;1754473;81;21129;-63
2022/09/18 02:33:58;;;;;;;5.83;3.58;;;;;;;14.63;78.67;98826.98;1748840;81;21094;-63
2022/09/18 02:36:50;;;;;;;5.80;4.03;;;;;;;14.65;78.42;98819.16;1754075;81;21094;-63
2022/09/18 02:39:43;;;;;;;6.67;4.00;;;;;;;14.63;78.29;98816.39;1754454;81;21768;-63
2022/09/18 02:42:36;;;;;;;5.37;3.25;;;;;;;14.58;78.51;98807.66;1759199;81;21031;-63
2022/09/18 02:45:20;;;;;;;5.53;3.65;;;;;;;14.54;78.49;98802.91;1747928;81;21043;-63
2022/09/18 02:48:09;;;;;;;5.37;3.42;;;;;;;14.53;78.72;98794.16;1747484;81;21868;-63
2022/09/18 02:51:14;;;;;;;5.47;3.70;;;;;;;14.54;78.70;98791.00;1763409;81;21023;-62
2022/09/18 02:53:55;;;;;;;8.78;3.90;;;;;;;14.54;79.09;98784.39;1739744;80;21169;-63
2022/09/18 02:56:44;;;;;;;5.83;3.52;;;;;;;14.47;79.09;98781.19;1751420;81;21019;-62
2022/09/18 02:59:18;;;;;;;6.50;4.20;;;;;;;14.43;79.28;98773.80;1761467;80;21072;-63
2022/09/18 03:01:47;;;;;;;6.20;4.12;;;;;;;14.45;79.39;98777.88;1691064;82;21054;-62
2022/09/18 03:04:25;;;;;;;5.75;3.92;;;;;;;14.48;79.45;98768.77;1696676;81;21039;-62
2022/09/18 03:06:53;;;;;;;6.25;4.05;;;;;;;14.49;79.47;98765.94;1711777;82;21841;-63
2022/09/18 03:09:21;;;;;;;7.28;4.17;;;;;;;14.44;79.61;98763.03;1760718;79;21058;-62
2022/09/18 03:11:48;;;;;;;6.08;4.05;;;;;;;14.43;79.60;98753.95;1759418;79;21048;-62
2022/09/18 03:14:17;;;;;;;8.15;3.98;;;;;;;14.45;79.40;98750.09;1753601;79;21104;-62
2022/09/18 03:16:45;;;;;;;7.35;3.70;;;;;;;14.45;79.39;98747.45;1763166;79;21512;-62
2022/09/18 03:19:13;;;;;;;6.25;3.47;;;;;;;14.39;79.39;98748.22;1758093;80;21221;-63
2022/09/18 03:21:41;;;;;;;5.53;3.55;;;;;;;14.31;79.69;98737.23;1741177;80;21037;-63
2022/09/18 03:24:11;;;;;;;5.67;3.75;;;;;;;14.28;79.83;98740.77;1751183;79;22218;-62
2022/09/18 03:26:40;;;;;;;5.05;3.17;;;;;;;14.30;79.92;98740.88;1752085;79;21023;-62
2022/09/18 03:29:08;;;;;;;6.28;3.58;;;;;;;14.35;79.90;98730.25;1751664;79;21055;-62
2022/09/18 03:31:35;;;;;;;5.33;3.35;;;;;;;14.34;79.79;98722.83;1749357;80;21154;-62
2022/09/18 03:34:03;;;;;;;5.42;3.42;;;;;;;14.27;79.91;98716.15;1748529;79;21021;-62
2022/09/18 03:36:30;;;;;;;5.62;3.50;;;;;;;14.23;80.08;98716.19;1759209;80;21062;-62
2022/09/18 03:38:57;;;;;;;5.45;3.42;;;;;;;14.24;80.17;98708.58;1754306;80;21086;-62
2022/09/18 03:41:24;;;;;;;5.45;3.47;;;;;;;14.28;80.13;98712.48;1751269;79;21027;-62
2022/09/18 03:43:51;;;;;;;6.92;3.67;;;;;;;14.28;80.21;98703.22;1752154;79;21502;-62
2022/09/18 03:46:22;;;;;;;5.72;3.55;;;;;;;14.26;80.21;98697.30;1751529;79;21070;-62
2022/09/18 03:48:51;;;;;;;6.10;3.60;;;;;;;14.19;80.24;98691.13;1753762;80;21011;-62
2022/09/18 03:51:19;;;;;;;6.08;3.22;;;;;;;14.17;80.58;98694.47;1740476;80;21087;-62
2022/09/18 03:53:47;;;;;;;4.67;3.08;;;;;;;14.18;80.46;98692.13;1691848;82;21043;-62
2022/09/18 03:56:24;;;;;;;6.03;2.50;;;;;;;14.22;80.53;98681.98;1719571;81;21891;-62
2022/09/18 03:59:09;;;;;;;5.28;3.40;;;;;;;14.22;80.43;98674.89;1714823;81;21091;-62
2022/09/18 04:01:56;;;;;;;5.78;3.77;;;;;;;14.22;80.58;98677.53;1727473;81;21094;-62
2022/09/18 04:04:26;;;;;;;7.08;3.20;;;;;;;14.21;80.84;98678.53;1727968;80;21107;-62
2022/09/18 04:07:02;;;;;;;5.62;3.25;;;;;;;14.19;80.83;98677.91;1731993;81;21058;-62
2022/09/18 04:09:46;;;;;;;6.53;3.30;;;;;;;14.20;80.68;98668.13;1703281;82;21238;-62
2022/09/18 04:12:14;;;;;;;7.15;3.42;;;;;;;14.17;80.54;98662.73;1699363;82;21534;-62
2022/09/18 04:14:42;;;;;;;7.37;3.80;;;;;;;14.10;80.74;98660.02;1729907;81;21047;-62
2022/09/18 04:17:10;;;;;;;5.40;3.30;;;;;;;14.05;81.12;98647.02;1731700;81;21085;-62
2022/09/18 04:19:36;;;;;;;5.72;3.42;;;;;;;13.99;81.05;98640.67;1734040;81;21086;-62
2022/09/18 04:22:03;;;;;;;7.15;4.08;;;;;;;13.99;81.24;98635.89;1716802;82;21254;-62
2022/09/18 04:24:30;;;;;;;5.22;3.30;;;;;;;14.02;81.39;98627.08;1736823;82;21085;-62
2022/09/18 04:26:59;;;;;;;5.45;3.72;;;;;;;14.04;81.39;98627.70;1708691;81;21075;-62
2022/09/18 04:29:26;;;;;;;5.58;3.02;;;;;;;14.05;81.25;98625.86;1733706;82;21062;-62
2022/09/18 04:31:52;;;;;;;5.60;3.70;;;;;;;14.04;81.46;98626.89;1732719;82;21488;-62
2022/09/18 04:34:20;;;;;;;5.50;3.40;;;;;;;14.03;81.56;98622.08;1732164;82;21249;-62
2022/09/18 04:36:47;;;;;;;5.83;3.60;;;;;;;14.07;81.44;98625.17;1729254;82;21129;-62
2022/09/18 04:39:13;;;;;;;5.50;3.50;;;;;;;14.10;81.43;98626.12;1731749;82;21130;-62
2022/09/18 04:41:41;;;;;;;5.17;3.20;;;;;;;14.12;81.20;98622.30;1731089;81;21082;-62
2022/09/18 04:44:07;;;;;;;7.83;3.85;;;;;;;14.10;81.24;98616.38;1731419;82;21043;-62
2022/09/18 04:46:34;;;;;;;5.50;3.33;;;;;;;14.08;81.36;98631.59;1714758;81;21252;-62
2022/09/18 04:49:01;;;;;;;6.97;3.40;;;;;;;14.09;81.23;98633.24;1728501;82;21569;-62
2022/09/18 04:51:28;;;;;;;6.62;3.47;;;;;;;14.11;80.90;98622.48;1707322;82;21380;-61
2022/09/18 04:53:55;;;;;;;6.15;3.70;;;;;;;14.12;80.97;98618.80;1698295;82;21484;-62
2022/09/18 04:56:22;;;;;;;7.25;3.92;;;;;;;14.12;81.13;98605.10;1710158;82;21066;-62
2022/09/18 04:58:51;;;;;;;5.35;3.58;;;;;;;14.14;81.26;98602.27;1706454;82;21263;-62
2022/09/18 05:01:18;;;;;;;5.30;3.30;;;;;;;14.16;81.08;98589.66;1710131;82;21051;-62
2022/09/18 05:03:44;;;;;;;5.60;3.35;;;;;;;14.17;80.64;98573.28;1761637;79;21166;-62
2022/09/18 05:06:12;;;;;;;7.10;3.55;;;;;;;14.18;80.74;98580.22;1759058;79;20968;-62
2022/09/18 05:08:39;;;;;;;6.22;4.25;;;;;;;14.16;80.75;98572.47;1762411;80;21027;-62
2022/09/18 05:11:06;;;;;;;8.08;3.52;;;;;;;14.11;80.94;98566.94;1702020;82;21940;-62
2022/09/18 05:13:34;;;;;;;5.78;3.90;;;;;;;14.10;81.10;98577.19;1693196;82;21670;-61
2022/09/18 05:16:04;;;;;;;5.90;3.52;;;;;;;14.12;80.94;98576.48;1702953;82;20989;-62
2022/09/18 05:18:31;;;;;;;6.47;4.37;;;;;;;14.12;80.90;98573.84;1761700;80;20979;-63
2022/09/18 05:21:03;;;;;;;6.03;4.03;;;;;;;14.12;81.02;98578.66;1754688;79;21034;-62
2022/09/18 05:23:33;;;;;;;7.25;3.75;;;;;;;14.11;81.22;98576.20;1762868;79;21093;-62
2022/09/18 05:26:01;;;;;;;8.78;4.75;;;;;;;14.05;81.29;98567.69;1758543;79;21051;-62
2022/09/18 05:28:27;;;;;;;6.35;4.10;;;;;;;14.07;81.44;98563.86;1762734;79;21031;-62
2022/09/18 05:30:59;;;;;;;6.22;4.10;;;;;;;14.15;81.42;98565.53;1761574;79;20987;-62
2022/09/18 05:33:27;;;;;;;8.70;4.97;;;;;;;14.19;81.34;98552.27;1755912;79;21844;-62
2022/09/18 05:35:54;;;;;;;6.70;4.78;;;;;;;14.23;81.36;98544.24;1771022;79;21090;-62
2022/09/18 05:38:22;;;;;;;7.25;4.72;;;;;;;14.24;81.40;98536.63;1760640;79;21008;-62
2022/09/18 05:40:49;;;;;;;6.85;4.78;;;;;;;14.23;81.33;98533.66;1763492;79;21015;-62
2022/09/18 05:43:16;;;;;;;8.50;5.28;;;;;;;14.27;81.12;98520.86;1766218;79;20975;-62
2022/09/18 05:45:43;;;;;;;7.22;4.65;;;;;;;14.28;81.02;98522.00;1760683;79;20993;-62
2022/09/18 05:48:14;;;;;;;9.80;5.70;;;;;;;14.30;81.20;98519.16;1760698;79;21135;-62
2022/09/18 05:50:42;;;;;;;9.25;5.97;;;;;;;14.30;81.30;98531.06;1757185;79;22230;-62
2022/09/18 05:53:12;;;;;;;8.08;5.00;;;;;;;14.34;81.40;98523.56;1756168;79;20982;-62
2022/09/18 05:55:46;;;;;;;7.78;5.05;;;;;;;14.38;81.13;98526.15;1720486;79;21042;-62
2022/09/18 05:58:15;;;;;;;6.83;5.00;;;;;;;14.41;80.89;98523.93;1760674;80;21373;-62
2022/09/18 06:00:45;;;;;;;7.72;5.45;;;;;;;14.41;80.79;98517.83;1756512;79;21543;-62
2022/09/18 06:03:14;;;;;;;8.68;5.80;;;;;;;14.36;80.95;98507.01;1753290;79;21078;-62
2022/09/18 06:05:42;;;;;;;7.65;5.60;;;;;;;14.34;81.01;98508.52;1748227;79;20977;-62
2022/09/18 06:08:11;;;;;;;8.70;5.47;;;;;;;14.33;80.94;98504.74;1760308;79;20999;-62
2022/09/18 06:10:39;;;;;;;7.97;5.75;;;;;;;14.35;80.78;98496.11;1753605;79;20971;-62
2022/09/18 06:13:11;;;;;;;8.65;5.67;;;;;;;14.38;80.96;98489.91;1747527;80;20965;-62
2022/09/18 06:15:42;;;;;;;9.15;6.65;;;;;;;14.47;81.16;98490.58;1751752;79;20990;-62
2022/09/18 06:18:08;;;;;;;8.68;6.20;;;;;;;14.54;81.19;98492.78;1734531;80;21605;-62
2022/09/18 06:20:35;;;;;;;7.78;5.90;;;;;;;14.53;81.05;98483.19;1732657;80;21054;-62
2022/09/18 06:23:02;;;;;;;8.13;5.72;;;;;;;14.49;81.11;98473.50;1731197;80;21000;-62
2022/09/18 06:25:30;;;;;;;7.53;5.58;;;;;;;14.52;81.11;98479.41;1755082;79;21121;-62
2022/09/18 06:27:58;;;;;;;7.28;5.37;;;;;;;14.55;80.95;98467.12;1751783;79;21017;-62
2022/09/18 06:30:28;;;;;;;9.25;6.20;;;;;;;14.60;80.91;98464.22;1753582;79;20988;-62
2022/09/18 06:32:55;;;;;;;8.38;6.25;;;;;;;14.65;80.90;98457.83;1750408;80;21032;-62
2022/09/18 06:35:23;;;;;;;8.53;5.72;;;;;;;14.66;81.00;98454.70;1736314;79;21405;-62
2022/09/18 06:37:50;;;;;;;8.48;5.80;;;;;;;14.62;80.94;98456.89;1756335;79;21463;-62
2022/09/18 06:40:32;;;;;;;8.33;5.17;;;;;;;14.61;80.86;98450.50;1751006;80;20985;-62
2022/09/18 06:43:12;;;;;;;6.92;4.80;;;;;;;14.68;80.67;98450.02;1755298;79;21012;-62
2022/09/18 06:45:57;;;;;;;9.78;5.65;;;;;;;14.70;80.59;98444.52;1756078;79;21456;-62
2022/09/18 06:48:25;;;;;;;7.95;5.30;;;;;;;14.73;80.67;98442.30;1758506;79;21408;-62
2022/09/18 06:50:53;;;;;;;9.83;6.03;;;;;;;14.78;80.82;98450.46;1762137;79;21078;-62
2022/09/18 06:53:20;;;;;;;8.00;5.25;;;;;;;14.79;80.80;98439.36;1752406;79;21079;-62
2022/09/18 06:55:49;;;;;;;7.80;5.25;;;;;;;14.78;80.82;98439.88;1750300;79;21008;-62
2022/09/18 06:58:16;;;;;;;6.65;4.80;;;;;;;14.80;80.67;98448.95;1756832;79;21631;-63
2022/09/18 07:00:43;;;;;;;8.95;5.17;;;;;;;14.82;80.38;98451.69;1752100;80;21048;-62
2022/09/18 07:03:12;;;;;;;8.03;5.45;;;;;;;14.83;80.26;98445.91;1753364;79;21466;-62
2022/09/18 07:05:46;;;;;;;6.92;4.72;;;;;;;14.84;80.33;98439.58;1713993;80;20979;-62
2022/09/18 07:08:14;;;;;;;7.67;5.25;;;;;;;14.84;80.32;98443.55;1756433;79;21572;-62
2022/09/18 07:10:41;;;;;;;7.40;4.65;;;;;;;14.81;80.25;98447.91;1737926;80;21043;-63
2022/09/18 07:13:08;;;;;;;6.72;4.20;;;;;;;14.79;80.31;98433.58;1759968;80;21020;-62
2022/09/18 07:15:37;;;;;;;6.90;4.80;;;;;;;14.83;80.22;98424.72;1762558;79;21268;-62
2022/09/18 07:18:06;;;;;;;9.50;4.85;;;;;;;14.86;80.16;98426.95;1758202;80;20991;-62
2022/09/18 07:20:34;;;;;;;7.20;4.67;;;;;;;14.85;80.14;98420.84;1764109;79;21431;-61
2022/09/18 07:23:03;;;;;;;7.80;5.20;;;;;;;14.82;80.46;98401.38;1762444;80;20999;-62
2022/09/18 07:25:39;;;;;;;6.83;4.83;;;;;;;14.82;80.73;98366.16;1747669;79;20941;-62
2022/09/18 07:28:07;;;;;;;8.25;4.40;;;;;;;14.91;80.68;98360.16;1750320;80;21208;-62
2022/09/18 07:30:36;;;;;;;7.47;4.22;;;;;;;14.98;80.58;98394.13;1703932;82;21028;-62
2022/09/18 07:33:04;;;;;;;7.45;4.25;;;;;;;15.00;80.37;98386.27;1740091;80;21557;-62
2022/09/18 07:35:31;;;;;;;6.67;4.50;;;;;;;15.03;80.41;98389.84;1754244;79;21004;-62
2022/09/18 07:38:00;;;;;;;6.85;4.40;;;;;;;15.05;80.73;98371.91;1762221;79;20960;-63
2022/09/18 07:40:28;;;;;;;10.05;4.65;;;;;;;15.08;80.67;98368.55;1753042;79;21112;-63
2022/09/18 07:43:08;;;;;;;7.60;4.30;;;;;;;15.12;80.67;98369.80;1748411;79;21358;-63
2022/09/18 07:45:35;;;;;;;7.03;4.10;;;;;;;15.15;80.29;98382.12;1757129;79;21466;-63
2022/09/18 07:48:03;;;;;;;6.40;4.33;;;;;;;15.20;80.36;98385.50;1755237;79;21012;-63
2022/09/18 07:50:30;;;;;;;6.20;3.58;;;;;;;15.24;80.23;98386.72;1749101;79;20987;-62
2022/09/18 07:53:01;;;;;;;6.78;4.42;;;;;;;15.20;80.10;98378.88;1755884;79;21321;-62
2022/09/18 07:55:29;;;;;;;6.12;4.03;;;;;;;15.13;80.16;98370.92;1750193;79;21040;-63
2022/09/18 07:57:59;;;;;;;7.15;4.42;;;;;;;15.12;80.32;98369.80;1755409;79;21007;-64
2022/09/18 08:00:35;;;;;;;6.03;3.40;;;;;;;15.17;80.08;98372.66;1725365;81;21007;-64
2022/09/18 08:03:10;;;;;;;6.70;3.65;;;;;;;15.18;79.90;98373.78;1754223;79;21043;-63
2022/09/18 08:05:42;;;;;;;7.03;3.47;;;;;;;15.15;79.89;98373.38;1748597;80;21144;-64
2022/09/18 08:08:14;;;;;;;5.97;4.03;;;;;;;15.11;80.21;98366.30;1755456;79;21509;-62
2022/09/18 08:10:52;;;;;;;5.00;3.00;;;;;;;15.07;80.40;98364.28;1750588;79;21088;-62
2022/09/18 08:13:39;;;;;;;6.08;3.30;;;;;;;15.09;80.71;98369.67;1718565;80;22199;-65
2022/09/18 08:16:12;;;;;;;5.33;2.65;;;;;;;15.18;80.73;98367.64;1739983;79;20991;-63
2022/09/18 08:18:56;;;;;;;5.75;3.08;;;;;;;15.23;80.77;98361.23;1653580;83;21907;-63
2022/09/18 08:21:33;;;;;;;6.00;2.92;;;;;;;15.25;80.70;98352.59;1725529;80;20992;-64
2022/09/18 08:24:02;;;;;;;6.42;2.65;;;;;;;15.23;80.80;98360.73;1749287;79;20972;-64
2022/09/18 08:26:30;;;;;;;5.87;3.02;;;;;;;15.24;81.02;98362.87;1751839;79;20987;-63
2022/09/18 08:28:56;;;;;;;8.58;2.50;;;;;;;15.27;80.82;98351.06;1753532;79;21055;-62
2022/09/18 08:31:23;;;;;;;4.47;2.72;;;;;;;15.37;80.93;98342.20;1754844;79;21436;-63
2022/09/18 08:33:52;;;;;;;4.60;2.47;;;;;;;15.49;81.22;98341.08;1759373;79;21132;-63
2022/09/18 08:36:20;;;;;;;4.50;2.50;;;;;;;15.64;81.56;98334.23;1757246;80;22422;-63
2022/09/18 08:38:50;;;;;;;4.03;2.35;;;;;;;15.77;81.37;98339.03;1756463;79;22670;-63
2022/09/18 08:41:35;;;;;;;4.58;2.30;;;;;;;15.88;81.52;98334.92;1746269;79;21502;-63
2022/09/18 08:44:09;;;;;;;5.78;2.58;;;;;;;15.96;80.97;98336.03;1753432;79;21288;-64
2022/09/18 08:46:47;;;;;;;6.53;2.60;;;;;;;16.02;80.23;98331.75;1753484;79;21089;-63
2022/09/18 08:49:34;;;;;;;5.47;2.52;;;;;;;16.10;79.34;98330.17;1751677;79;21016;-63
2022/09/18 08:52:16;;;;;;;5.37;2.45;;;;;;;16.19;79.22;98320.66;1748553;79;21074;-63
2022/09/18 08:54:49;;;;;;;5.00;2.67;;;;;;;16.24;78.90;98316.37;1760062;79;21528;-63
2022/09/18 08:57:40;;;;;;;4.60;2.60;;;;;;;16.30;78.81;98310.73;1755999;79;21280;-63
2022/09/18 09:00:30;;;;;;;7.08;2.60;;;;;;;16.30;78.50;98308.07;1760461;79;21039;-64
2022/09/18 09:03:38;;;;;;;5.95;2.60;;;;;;;16.36;78.10;98301.93;1714877;81;21520;-64
2022/09/18 09:06:20;;;;;;;4.90;2.65;;;;;;;16.36;77.40;98296.63;1761169;79;21094;-65
2022/09/18 09:09:16;;;;;;;4.45;2.62;;;;;;;16.33;77.18;98294.39;1758754;79;21753;-66
2022/09/18 09:12:21;;;;;;;5.70;3.40;;;;;;;16.32;77.53;98286.11;1723683;79;22203;-65
2022/09/18 09:15:13;;;;;;;6.30;4.10;;;;;;;16.28;77.51;98291.55;1772530;79;21042;-65
2022/09/18 09:17:58;;;;;;;7.92;4.47;;;;;;;16.22;77.89;98292.38;1762314;79;21043;-64
2022/09/18 09:20:44;;;;;;;7.97;5.33;;;;;;;16.17;77.60;98287.70;1741039;80;21000;-65
2022/09/18 09:23:42;;;;;;;8.93;5.22;;;;;;;16.16;77.56;98286.89;1753642;79;21019;-64
2022/09/18 09:26:18;;;;;;;8.68;6.03;;;;;;;16.13;77.68;98287.31;1738778;79;21556;-64
2022/09/18 09:29:11;;;;;;;7.62;6.17;;;;;;;16.15;78.04;98277.33;1738042;80;21027;-64
2022/09/18 09:32:08;;;;;;;9.38;7.42;;;;;;;16.12;78.17;98279.06;1722400;79;21070;-64
2022/09/18 09:34:51;;;;;;;10.10;8.13;;;;;;;16.05;78.29;98276.13;1762745;79;21081;-64
2022/09/18 09:37:42;;;;;;;10.35;7.90;;;;;;;16.07;78.38;98278.05;1766695;79;21082;-64
2022/09/18 09:40:26;;;;;;;;;;;;;;;16.10;78.30;98282.94;1761842;79;21128;-64
2022/09/18 09:42:58;;;;;;;10.23;7.92;;;;;;;16.12;78.59;98274.25;1758660;79;20825;-64
2022/09/18 09:45:46;;;;;;;9.48;7.40;;;;;;;16.17;78.79;98283.72;1736474;79;21072;-63
2022/09/18 09:48:37;;;;;;;11.85;8.13;;;;;;;16.21;78.78;98278.83;1742357;79;21003;-62
2022/09/18 09:51:29;;;;;;;10.43;7.30;;;;;;;16.20;78.62;98284.63;1756823;80;21512;-64
2022/09/18 09:53:59;;;;;;;11.57;7.85;;;;;;;16.18;78.87;98284.03;1762522;79;21252;-64
2022/09/18 09:56:54;;;;;;;9.85;7.08;;;;;;;16.21;78.90;98289.45;1743081;80;21130;-65
2022/09/18 09:59:35;;;;;;;10.00;7.80;;;;;;;16.25;78.72;98289.31;1760919;79;21381;-64
2022/09/18 10:02:33;;;;;;;10.80;8.30;;;;;;;16.26;78.64;98289.11;1733349;79;20984;-64
2022/09/18 10:05:49;;;;;;;11.25;8.13;;;;;;;16.29;78.68;98297.98;1754993;79;21058;-64
2022/09/18 10:08:32;;;;;;;11.50;9.00;;;;;;;16.26;78.95;98286.98;1757596;79;21520;-65
2022/09/18 10:11:01;;;;;;;12.23;8.93;;;;;;;16.24;79.06;98291.16;1750786;80;21071;-64
2022/09/18 10:13:53;;;;;;;11.43;8.70;;;;;;;16.22;79.00;98285.23;1747511;79;21114;-64
2022/09/18 10:16:33;;;;;;;12.25;9.25;;;;;;;16.26;78.96;98285.13;1756044;80;21651;-65
2022/09/18 10:19:00;;;;;;;14.18;10.15;;;;;;;16.33;79.02;98288.56;1754940;80;21469;-65
2022/09/18 10:21:30;;;;;;;13.08;11.00;;;;;;;16.33;79.04;98280.59;1756741;79;21290;-65
2022/09/18 10:24:32;;;;;;;15.10;10.63;;;;;;;16.33;79.21;98281.11;1752116;79;21062;-65
2022/09/18 10:27:08;;;;;;;12.70;9.73;;;;;;;16.32;79.46;98278.15;1755400;79;21074;-65
2022/09/18 10:29:35;;;;;;;11.68;10.18;;;;;;;16.36;79.48;98276.72;1755480;79;21665;-65
2022/09/18 10:32:03;;;;;;;12.33;9.48;;;;;;;16.41;79.46;98282.70;1749826;79;21072;-65
2022/09/18 10:34:44;;;;;;;9.93;8.13;;;;;;;16.45;79.46;98279.41;1753309;79;22189;-64
2022/09/18 10:37:31;;;;;;;11.97;8.60;;;;;;;16.50;79.58;98276.13;1764000;79;21070;-64
2022/09/18 10:40:02;;;;;;;10.03;8.60;;;;;;;16.55;79.47;98274.17;1760519;79;21465;-64
2022/09/18 10:42:32;;;;;;;11.28;8.10;;;;;;;16.55;79.58;98279.48;1769107;79;21035;-64
2022/09/18 10:45:06;;;;;;;10.58;9.03;;;;;;;16.56;79.59;98275.28;1764851;79;21043;-65
2022/09/18 10:47:35;;;;;;;13.08;8.43;;;;;;;16.56;79.43;98273.95;1731307;80;21128;-64
2022/09/18 10:50:14;;;;;;;10.98;7.97;;;;;;;16.61;79.37;98272.80;1764207;79;21008;-65
2022/09/18 10:52:45;;;;;;;10.10;7.42;;;;;;;16.64;79.30;98271.55;1720763;81;20965;-64
2022/09/18 10:55:19;;;;;;;9.50;7.35;;;;;;;16.65;79.14;98271.86;1756004;79;21457;-64
2022/09/18 10:58:02;;;;;;;9.40;7.25;;;;;;;16.61;79.10;98275.95;1700216;82;21040;-64
2022/09/18 11:00:33;;;;;;;9.98;6.90;;;;;;;16.57;79.11;98278.74;1723021;81;21089;-65
2022/09/18 11:03:04;;;;;;;9.45;6.05;;;;;;;16.56;79.16;98267.81;1744416;79;21586;-65
2022/09/18 11:05:35;;;;;;;9.95;6.62;;;;;;;16.59;79.03;98262.89;1736548;79;21044;-65
2022/09/18 11:08:15;;;;;;;8.25;6.22;;;;;;;16.64;79.13;98254.29;1759014;79;21436;-64
2022/09/18 11:10:52;;;;;;;10.03;7.35;;;;;;;16.70;79.20;98253.44;1747854;80;21516;-64
2022/09/18 11:13:23;;;;;;;11.20;8.00;;;;;;;16.75;79.30;98248.82;1769359;79;21259;-65
2022/09/18 11:15:54;;;;;;;9.80;7.10;;;;;;;16.72;79.40;98241.56;1758580;80;21015;-65
2022/09/18 11:18:22;;;;;;;11.48;7.42;;;;;;;16.73;79.74;98237.09;1750248;80;20991;-65
2022/09/18 11:20:49;;;;;;;10.58;7.15;;;;;;;16.75;79.73;98230.23;1763681;79;21015;-65
2022/09/18 11:23:33;;;;;;;10.90;7.62;;;;;;;16.76;79.58;98230.02;1763348;80;21007;-65
2022/09/18 11:26:19;;;;;;;9.45;8.15;;;;;;;16.81;79.53;98224.87;1756058;79;22186;-65
2022/09/18 11:29:05;;;;;;;10.50;7.37;;;;;;;16.85;79.70;98219.44;1750605;79;21082;-64
2022/09/18 11:31:47;;;;;;;12.68;8.38;;;;;;;16.93;79.90;98218.87;1764297;79;21055;-65
2022/09/18 11:34:35;;;;;;;10.63;8.28;;;;;;;16.94;80.21;98213.34;1753949;79;21058;-64
2022/09/18 11:37:13;;;;;;;10.93;8.28;;;;;;;16.99;80.33;98212.17;1754871;79;21075;-64
2022/09/18 11:39:46;;;;;;;15.35;8.95;;;;;;;17.12;80.20;98197.97;1758213;79;21564;-64
2022/09/18 11:42:15;;;;;;;10.82;8.43;;;;;;;17.22;80.26;98192.96;1762580;79;21031;-64
2022/09/18 11:44:43;;;;;;;12.07;8.78;;;;;;;17.32;80.39;98198.30;1754887;79;21486;-64
2022/09/18 11:47:33;;;;;;;14.28;9.43;;;;;;;17.40;80.67;98186.86;1755890;79;21035;-64
2022/09/18 11:50:22;;;;;;;13.78;9.38;;;;;;;17.46;80.54;98174.52;1758125;79;20999;-64
2022/09/18 11:52:53;;;;;;;11.93;8.20;;;;;;;17.52;80.29;98168.33;1765946;79;21076;-64
2022/09/18 11:55:31;;;;;;;10.68;8.18;;;;;;;17.61;80.00;98165.64;1749289;79;21043;-64
2022/09/18 11:58:25;;;;;;;10.53;7.87;;;;;;;17.68;79.81;98162.91;1743619;80;21071;-64
2022/09/18 12:01:12;;;;;;;10.98;8.08;;;;;;;17.78;79.98;98142.44;1759746;79;21078;-64
2022/09/18 12:03:48;;;;;;;9.43;7.45;;;;;;;17.99;80.37;98130.02;1749747;79;21512;-64
2022/09/18 12:06:47;;;;;;;10.28;7.17;;;;;;;18.30;79.78;98114.81;1768771;79;21543;-64